sensor_id;sensor_type;location;lat;lon;timestamp;P1;durP1;ratioP1;P2;durP2;ratioP2
34737;SDS011;39910;47.154;27.614;2024-02-14T00:02:02;9.85;;;9.45;;
34737;SDS011;39910;47.154;27.614;2024-02-14T00:04:31;10.60;;;10.10;;
34737;SDS011;39910;47.154;27.614;2024-02-14T00:06:56;9.98;;;9.55;;
34737;SDS011;39910;47.154;27.614;2024-02-14T00:09:21;10.23;;;9.73;;
34737;SDS011;39910;47.154;27.614;2024-02-14T00:11:47;10.73;;;10.23;;
34737;SDS011;39910;47.154;27.614;2024-02-14T00:14:13;10.50;;;10.00;;
34737;SDS011;39910;47.154;27.614;2024-02-14T00:16:38;10.50;;;10.00;;
34737;SDS011;39910;47.154;27.614;2024-02-14T00:19:04;10.02;;;9.63;;
34737;SDS011;39910;47.154;27.614;2024-02-14T00:21:29;11.00;;;10.50;;
34737;SDS011;39910;47.154;27.614;2024-02-14T00:23:55;10.55;;;10.05;;
34737;SDS011;39910;47.154;27.614;2024-02-14T00:26:21;9.80;;;9.40;;
34737;SDS011;39910;47.154;27.614;2024-02-14T00:28:47;10.20;;;9.73;;
34737;SDS011;39910;47.154;27.614;2024-02-14T00:31:12;10.23;;;9.73;;
34737;SDS011;39910;47.154;27.614;2024-02-14T00:33:38;10.27;;;9.77;;
34737;SDS011;39910;47.154;27.614;2024-02-14T00:36:03;10.05;;;9.60;;
34737;SDS011;39910;47.154;27.614;2024-02-14T00:38:29;10.20;;;9.70;;
34737;SDS011;39910;47.154;27.614;2024-02-14T00:40:54;10.20;;;9.70;;
34737;SDS011;39910;47.154;27.614;2024-02-14T00:43:20;10.20;;;9.70;;
34737;SDS011;39910;47.154;27.614;2024-02-14T00:45:45;10.05;;;9.65;;
34737;SDS011;39910;47.154;27.614;2024-02-14T00:48:10;10.30;;;9.80;;
34737;SDS011;39910;47.154;27.614;2024-02-14T00:50:36;10.45;;;9.95;;
34737;SDS011;39910;47.154;27.614;2024-02-14T00:53:02;9.80;;;9.40;;
34737;SDS011;39910;47.154;27.614;2024-02-14T00:55:28;10.57;;;10.07;;
34737;SDS011;39910;47.154;27.614;2024-02-14T00:57:53;10.35;;;9.85;;
34737;SDS011;39910;47.154;27.614;2024-02-14T01:00:19;10.30;;;9.80;;
34737;SDS011;39910;47.154;27.614;2024-02-14T01:02:44;10.63;;;10.13;;
34737;SDS011;39910;47.154;27.614;2024-02-14T01:05:10;9.93;;;9.52;;
34737;SDS011;39910;47.154;27.614;2024-02-14T01:07:35;10.80;;;10.30;;
34737;SDS011;39910;47.154;27.614;2024-02-14T01:10:01;10.30;;;9.80;;
34737;SDS011;39910;47.154;27.614;2024-02-14T01:12:26;10.40;;;9.90;;
34737;SDS011;39910;47.154;27.614;2024-02-14T01:14:52;10.10;;;9.63;;
34737;SDS011;39910;47.154;27.614;2024-02-14T01:17:17;9.85;;;9.45;;
34737;SDS011;39910;47.154;27.614;2024-02-14T01:19:43;10.30;;;9.80;;
34737;SDS011;39910;47.154;27.614;2024-02-14T01:22:09;10.02;;;9.57;;
34737;SDS011;39910;47.154;27.614;2024-02-14T01:24:34;10.82;;;10.32;;
34737;SDS011;39910;47.154;27.614;2024-02-14T01:26:59;10.50;;;10.00;;
34737;SDS011;39910;47.154;27.614;2024-02-14T01:29:25;9.88;;;9.48;;
34737;SDS011;39910;47.154;27.614;2024-02-14T01:31:51;10.18;;;9.68;;
34737;SDS011;39910;47.154;27.614;2024-02-14T01:34:16;10.00;;;9.60;;
34737;SDS011;39910;47.154;27.614;2024-02-14T01:36:41;10.50;;;10.00;;
34737;SDS011;39910;47.154;27.614;2024-02-14T01:39:07;10.38;;;9.88;;
34737;SDS011;39910;47.154;27.614;2024-02-14T01:41:43;9.93;;;9.52;;
34737;SDS011;39910;47.154;27.614;2024-02-14T01:44:11;10.00;;;9.60;;
34737;SDS011;39910;47.154;27.614;2024-02-14T01:46:36;10.38;;;9.88;;
34737;SDS011;39910;47.154;27.614;2024-02-14T01:49:01;10.20;;;9.70;;
34737;SDS011;39910;47.154;27.614;2024-02-14T01:51:28;10.55;;;10.05;;
34737;SDS011;39910;47.154;27.614;2024-02-14T01:53:54;10.48;;;9.98;;
34737;SDS011;39910;47.154;27.614;2024-02-14T01:56:20;9.90;;;9.50;;
34737;SDS011;39910;47.154;27.614;2024-02-14T01:58:45;10.98;;;10.48;;
34737;SDS011;39910;47.154;27.614;2024-02-14T02:01:11;10.68;;;10.18;;
34737;SDS011;39910;47.154;27.614;2024-02-14T02:03:37;10.48;;;9.98;;
34737;SDS011;39910;47.154;27.614;2024-02-14T02:06:03;10.00;;;9.60;;
34737;SDS011;39910;47.154;27.614;2024-02-14T02:08:28;10.20;;;9.70;;
34737;SDS011;39910;47.154;27.614;2024-02-14T02:10:54;10.10;;;9.60;;
34737;SDS011;39910;47.154;27.614;2024-02-14T02:13:20;10.65;;;10.15;;
34737;SDS011;39910;47.154;27.614;2024-02-14T02:15:46;10.52;;;10.02;;
34737;SDS011;39910;47.154;27.614;2024-02-14T02:18:11;10.50;;;10.00;;
34737;SDS011;39910;47.154;27.614;2024-02-14T02:20:38;10.15;;;9.65;;
34737;SDS011;39910;47.154;27.614;2024-02-14T02:23:03;9.73;;;9.32;;
34737;SDS011;39910;47.154;27.614;2024-02-14T02:25:30;10.05;;;9.60;;
34737;SDS011;39910;47.154;27.614;2024-02-14T02:27:55;10.55;;;10.05;;
34737;SDS011;39910;47.154;27.614;2024-02-14T02:30:24;10.15;;;9.65;;
34737;SDS011;39910;47.154;27.614;2024-02-14T02:32:50;9.88;;;9.45;;
34737;SDS011;39910;47.154;27.614;2024-02-14T02:35:16;10.10;;;9.60;;
34737;SDS011;39910;47.154;27.614;2024-02-14T02:37:41;10.30;;;9.80;;
34737;SDS011;39910;47.154;27.614;2024-02-14T02:40:10;10.23;;;9.73;;
34737;SDS011;39910;47.154;27.614;2024-02-14T02:42:35;9.82;;;9.43;;
34737;SDS011;39910;47.154;27.614;2024-02-14T02:45:01;9.82;;;9.43;;
34737;SDS011;39910;47.154;27.614;2024-02-14T02:47:30;9.93;;;9.52;;
34737;SDS011;39910;47.154;27.614;2024-02-14T02:49:55;10.05;;;9.55;;
34737;SDS011;39910;47.154;27.614;2024-02-14T02:52:22;10.32;;;9.82;;
34737;SDS011;39910;47.154;27.614;2024-02-14T02:54:48;10.10;;;9.60;;
34737;SDS011;39910;47.154;27.614;2024-02-14T02:57:13;9.90;;;9.50;;
34737;SDS011;39910;47.154;27.614;2024-02-14T02:59:39;10.40;;;9.90;;
34737;SDS011;39910;47.154;27.614;2024-02-14T03:02:10;10.35;;;9.85;;
34737;SDS011;39910;47.154;27.614;2024-02-14T03:04:37;10.52;;;10.02;;
34737;SDS011;39910;47.154;27.614;2024-02-14T03:07:02;10.35;;;9.85;;
34737;SDS011;39910;47.154;27.614;2024-02-14T03:09:32;9.90;;;9.50;;
34737;SDS011;39910;47.154;27.614;2024-02-14T03:11:57;10.10;;;9.60;;
34737;SDS011;39910;47.154;27.614;2024-02-14T03:14:23;9.95;;;9.55;;
34737;SDS011;39910;47.154;27.614;2024-02-14T03:16:48;10.10;;;9.60;;
34737;SDS011;39910;47.154;27.614;2024-02-14T03:19:14;10.50;;;10.00;;
34737;SDS011;39910;47.154;27.614;2024-02-14T03:21:39;9.82;;;9.43;;
34737;SDS011;39910;47.154;27.614;2024-02-14T03:24:05;9.75;;;9.35;;
34737;SDS011;39910;47.154;27.614;2024-02-14T03:26:33;10.27;;;9.77;;
34737;SDS011;39910;47.154;27.614;2024-02-14T03:28:59;10.02;;;9.52;;
34737;SDS011;39910;47.154;27.614;2024-02-14T03:31:25;10.20;;;9.70;;
34737;SDS011;39910;47.154;27.614;2024-02-14T03:33:51;9.60;;;9.20;;
34737;SDS011;39910;47.154;27.614;2024-02-14T03:36:16;9.95;;;9.55;;
34737;SDS011;39910;47.154;27.614;2024-02-14T03:38:42;10.32;;;9.82;;
34737;SDS011;39910;47.154;27.614;2024-02-14T03:41:07;10.60;;;10.10;;
34737;SDS011;39910;47.154;27.614;2024-02-14T03:43:33;10.30;;;9.80;;
34737;SDS011;39910;47.154;27.614;2024-02-14T03:45:58;10.02;;;9.55;;
34737;SDS011;39910;47.154;27.614;2024-02-14T03:48:23;9.70;;;9.30;;
34737;SDS011;39910;47.154;27.614;2024-02-14T03:50:49;9.70;;;9.30;;
34737;SDS011;39910;47.154;27.614;2024-02-14T03:53:14;10.20;;;9.70;;
34737;SDS011;39910;47.154;27.614;2024-02-14T03:55:40;10.23;;;9.73;;
34737;SDS011;39910;47.154;27.614;2024-02-14T03:58:06;9.85;;;9.45;;
34737;SDS011;39910;47.154;27.614;2024-02-14T04:00:33;9.73;;;9.32;;
34737;SDS011;39910;47.154;27.614;2024-02-14T04:03:00;10.15;;;9.65;;
34737;SDS011;39910;47.154;27.614;2024-02-14T04:05:27;9.88;;;9.48;;
34737;SDS011;39910;47.154;27.614;2024-02-14T04:07:53;9.70;;;9.30;;
34737;SDS011;39910;47.154;27.614;2024-02-14T04:10:19;10.30;;;9.80;;
34737;SDS011;39910;47.154;27.614;2024-02-14T04:12:44;10.48;;;9.98;;
34737;SDS011;39910;47.154;27.614;2024-02-14T04:15:10;9.57;;;9.18;;
34737;SDS011;39910;47.154;27.614;2024-02-14T04:17:35;10.18;;;9.68;;
34737;SDS011;39910;47.154;27.614;2024-02-14T04:20:00;10.50;;;10.00;;
34737;SDS011;39910;47.154;27.614;2024-02-14T04:22:26;10.20;;;9.70;;
34737;SDS011;39910;47.154;27.614;2024-02-14T04:24:51;10.52;;;10.02;;
34737;SDS011;39910;47.154;27.614;2024-02-14T04:27:17;10.00;;;9.60;;
34737;SDS011;39910;47.154;27.614;2024-02-14T04:29:48;9.85;;;9.45;;
34737;SDS011;39910;47.154;27.614;2024-02-14T04:32:14;10.43;;;9.93;;
34737;SDS011;39910;47.154;27.614;2024-02-14T04:34:40;9.73;;;9.32;;
34737;SDS011;39910;47.154;27.614;2024-02-14T04:37:07;10.13;;;9.65;;
34737;SDS011;39910;47.154;27.614;2024-02-14T04:39:35;10.13;;;9.63;;
34737;SDS011;39910;47.154;27.614;2024-02-14T04:42:01;10.20;;;9.70;;
34737;SDS011;39910;47.154;27.614;2024-02-14T04:44:27;10.27;;;9.77;;
34737;SDS011;39910;47.154;27.614;2024-02-14T04:46:53;10.20;;;9.70;;
34737;SDS011;39910;47.154;27.614;2024-02-14T04:49:18;9.90;;;9.50;;
34737;SDS011;39910;47.154;27.614;2024-02-14T04:51:45;9.77;;;9.38;;
34737;SDS011;39910;47.154;27.614;2024-02-14T04:54:10;10.85;;;10.35;;
34737;SDS011;39910;47.154;27.614;2024-02-14T04:56:35;10.45;;;9.95;;
34737;SDS011;39910;47.154;27.614;2024-02-14T04:59:01;9.88;;;9.40;;
34737;SDS011;39910;47.154;27.614;2024-02-14T05:01:27;9.68;;;9.27;;
34737;SDS011;39910;47.154;27.614;2024-02-14T05:03:52;10.30;;;9.80;;
34737;SDS011;39910;47.154;27.614;2024-02-14T05:06:17;9.80;;;9.40;;
34737;SDS011;39910;47.154;27.614;2024-02-14T05:08:43;10.75;;;10.25;;
34737;SDS011;39910;47.154;27.614;2024-02-14T05:11:08;10.30;;;9.80;;
34737;SDS011;39910;47.154;27.614;2024-02-14T05:13:34;10.27;;;9.77;;
34737;SDS011;39910;47.154;27.614;2024-02-14T05:16:02;10.48;;;9.98;;
34737;SDS011;39910;47.154;27.614;2024-02-14T05:18:28;10.45;;;9.95;;
34737;SDS011;39910;47.154;27.614;2024-02-14T05:20:53;10.93;;;10.43;;
34737;SDS011;39910;47.154;27.614;2024-02-14T05:23:18;10.20;;;9.70;;
34737;SDS011;39910;47.154;27.614;2024-02-14T05:25:44;11.55;;;10.95;;
34737;SDS011;39910;47.154;27.614;2024-02-14T05:28:10;10.50;;;10.00;;
34737;SDS011;39910;47.154;27.614;2024-02-14T05:30:40;10.25;;;9.75;;
34737;SDS011;39910;47.154;27.614;2024-02-14T05:33:05;10.50;;;10.00;;
34737;SDS011;39910;47.154;27.614;2024-02-14T05:35:31;11.00;;;10.48;;
34737;SDS011;39910;47.154;27.614;2024-02-14T05:37:56;10.43;;;9.93;;
34737;SDS011;39910;47.154;27.614;2024-02-14T05:40:21;10.82;;;10.32;;
34737;SDS011;39910;47.154;27.614;2024-02-14T05:42:47;10.40;;;9.90;;
34737;SDS011;39910;47.154;27.614;2024-02-14T05:45:12;10.98;;;10.43;;
34737;SDS011;39910;47.154;27.614;2024-02-14T05:47:38;10.27;;;9.77;;
34737;SDS011;39910;47.154;27.614;2024-02-14T05:50:04;10.32;;;9.82;;
34737;SDS011;39910;47.154;27.614;2024-02-14T05:52:30;10.15;;;9.65;;
34737;SDS011;39910;47.154;27.614;2024-02-14T05:54:55;10.10;;;9.60;;
34737;SDS011;39910;47.154;27.614;2024-02-14T05:57:20;10.18;;;9.68;;
34737;SDS011;39910;47.154;27.614;2024-02-14T05:59:46;10.45;;;9.95;;
34737;SDS011;39910;47.154;27.614;2024-02-14T06:02:11;9.70;;;9.30;;
34737;SDS011;39910;47.154;27.614;2024-02-14T06:04:37;9.88;;;9.45;;
34737;SDS011;39910;47.154;27.614;2024-02-14T06:07:02;10.38;;;9.88;;
34737;SDS011;39910;47.154;27.614;2024-02-14T06:09:30;10.20;;;9.70;;
34737;SDS011;39910;47.154;27.614;2024-02-14T06:11:55;10.75;;;10.25;;
34737;SDS011;39910;47.154;27.614;2024-02-14T06:14:21;10.35;;;9.85;;
34737;SDS011;39910;47.154;27.614;2024-02-14T06:16:46;10.75;;;10.25;;
34737;SDS011;39910;47.154;27.614;2024-02-14T06:19:12;10.75;;;10.25;;
34737;SDS011;39910;47.154;27.614;2024-02-14T06:21:37;9.77;;;9.38;;
34737;SDS011;39910;47.154;27.614;2024-02-14T06:24:03;11.35;;;10.75;;
34737;SDS011;39910;47.154;27.614;2024-02-14T06:26:29;9.88;;;9.45;;
34737;SDS011;39910;47.154;27.614;2024-02-14T06:28:55;9.93;;;9.50;;
34737;SDS011;39910;47.154;27.614;2024-02-14T06:31:22;10.20;;;9.70;;
34737;SDS011;39910;47.154;27.614;2024-02-14T06:33:47;10.18;;;9.68;;
34737;SDS011;39910;47.154;27.614;2024-02-14T06:36:13;10.60;;;10.10;;
34737;SDS011;39910;47.154;27.614;2024-02-14T06:38:38;9.75;;;9.35;;
34737;SDS011;39910;47.154;27.614;2024-02-14T06:41:03;10.07;;;9.57;;
34737;SDS011;39910;47.154;27.614;2024-02-14T06:43:29;10.05;;;9.55;;
34737;SDS011;39910;47.154;27.614;2024-02-14T06:45:55;10.10;;;9.60;;
34737;SDS011;39910;47.154;27.614;2024-02-14T06:48:20;10.35;;;9.85;;
34737;SDS011;39910;47.154;27.614;2024-02-14T06:50:49;10.80;;;10.30;;
34737;SDS011;39910;47.154;27.614;2024-02-14T06:53:14;10.10;;;9.60;;
34737;SDS011;39910;47.154;27.614;2024-02-14T06:55:39;10.32;;;9.82;;
34737;SDS011;39910;47.154;27.614;2024-02-14T06:58:05;9.90;;;9.50;;
34737;SDS011;39910;47.154;27.614;2024-02-14T07:00:30;10.30;;;9.80;;
34737;SDS011;39910;47.154;27.614;2024-02-14T07:02:55;11.23;;;10.63;;
34737;SDS011;39910;47.154;27.614;2024-02-14T07:05:21;9.90;;;9.50;;
34737;SDS011;39910;47.154;27.614;2024-02-14T07:07:46;10.27;;;9.77;;
34737;SDS011;39910;47.154;27.614;2024-02-14T07:10:12;9.80;;;9.40;;
34737;SDS011;39910;47.154;27.614;2024-02-14T07:12:38;10.20;;;9.70;;
34737;SDS011;39910;47.154;27.614;2024-02-14T07:15:04;10.60;;;10.10;;
34737;SDS011;39910;47.154;27.614;2024-02-14T07:17:29;9.80;;;9.40;;
34737;SDS011;39910;47.154;27.614;2024-02-14T07:19:55;10.10;;;9.63;;
34737;SDS011;39910;47.154;27.614;2024-02-14T07:22:20;10.15;;;9.68;;
34737;SDS011;39910;47.154;27.614;2024-02-14T07:24:46;10.13;;;9.63;;
34737;SDS011;39910;47.154;27.614;2024-02-14T07:27:14;10.25;;;9.75;;
34737;SDS011;39910;47.154;27.614;2024-02-14T07:29:40;10.55;;;10.05;;
34737;SDS011;39910;47.154;27.614;2024-02-14T07:32:05;10.30;;;9.80;;
34737;SDS011;39910;47.154;27.614;2024-02-14T07:34:34;10.43;;;9.93;;
34737;SDS011;39910;47.154;27.614;2024-02-14T07:36:59;10.15;;;9.65;;
34737;SDS011;39910;47.154;27.614;2024-02-14T07:39:24;10.10;;;9.60;;
34737;SDS011;39910;47.154;27.614;2024-02-14T07:41:50;10.60;;;10.10;;
34737;SDS011;39910;47.154;27.614;2024-02-14T07:44:15;9.90;;;9.50;;
34737;SDS011;39910;47.154;27.614;2024-02-14T07:46:41;10.07;;;9.57;;
34737;SDS011;39910;47.154;27.614;2024-02-14T07:49:06;10.30;;;9.80;;
34737;SDS011;39910;47.154;27.614;2024-02-14T07:51:31;10.20;;;9.70;;
34737;SDS011;39910;47.154;27.614;2024-02-14T07:54:02;9.82;;;9.43;;
34737;SDS011;39910;47.154;27.614;2024-02-14T07:56:27;10.15;;;9.65;;
34737;SDS011;39910;47.154;27.614;2024-02-14T07:58:53;10.60;;;10.10;;
34737;SDS011;39910;47.154;27.614;2024-02-14T08:01:18;9.75;;;9.35;;
34737;SDS011;39910;47.154;27.614;2024-02-14T08:03:44;11.55;;;10.95;;
34737;SDS011;39910;47.154;27.614;2024-02-14T08:06:11;11.55;;;10.95;;
34737;SDS011;39910;47.154;27.614;2024-02-14T08:08:36;10.55;;;10.05;;
34737;SDS011;39910;47.154;27.614;2024-02-14T08:11:02;10.73;;;10.23;;
34737;SDS011;39910;47.154;27.614;2024-02-14T08:13:27;12.00;;;11.40;;
34737;SDS011;39910;47.154;27.614;2024-02-14T08:15:54;11.57;;;10.98;;
34737;SDS011;39910;47.154;27.614;2024-02-14T08:18:19;11.25;;;10.65;;
34737;SDS011;39910;47.154;27.614;2024-02-14T08:20:45;11.18;;;10.57;;
34737;SDS011;39910;47.154;27.614;2024-02-14T08:23:10;11.25;;;10.65;;
34737;SDS011;39910;47.154;27.614;2024-02-14T08:25:35;11.40;;;10.80;;
34737;SDS011;39910;47.154;27.614;2024-02-14T08:28:01;11.38;;;10.77;;
34737;SDS011;39910;47.154;27.614;2024-02-14T08:30:26;11.70;;;11.10;;
34737;SDS011;39910;47.154;27.614;2024-02-14T08:32:52;11.27;;;10.68;;
34737;SDS011;39910;47.154;27.614;2024-02-14T08:35:18;11.25;;;10.65;;
34737;SDS011;39910;47.154;27.614;2024-02-14T08:37:43;11.55;;;10.95;;
34737;SDS011;39910;47.154;27.614;2024-02-14T08:40:09;11.23;;;10.63;;
34737;SDS011;39910;47.154;27.614;2024-02-14T08:42:37;11.55;;;10.95;;
34737;SDS011;39910;47.154;27.614;2024-02-14T08:45:02;11.38;;;10.77;;
34737;SDS011;39910;47.154;27.614;2024-02-14T08:47:28;11.43;;;10.82;;
34737;SDS011;39910;47.154;27.614;2024-02-14T08:49:54;11.35;;;10.75;;
34737;SDS011;39910;47.154;27.614;2024-02-14T08:52:20;11.38;;;10.77;;
34737;SDS011;39910;47.154;27.614;2024-02-14T08:54:46;11.40;;;10.80;;
34737;SDS011;39910;47.154;27.614;2024-02-14T08:57:11;11.40;;;10.80;;
34737;SDS011;39910;47.154;27.614;2024-02-14T08:59:37;11.02;;;10.52;;
34737;SDS011;39910;47.154;27.614;2024-02-14T09:02:02;10.30;;;9.80;;
34737;SDS011;39910;47.154;27.614;2024-02-14T09:04:27;10.90;;;10.40;;
34737;SDS011;39910;47.154;27.614;2024-02-14T09:06:53;12.95;;;12.25;;
34737;SDS011;39910;47.154;27.614;2024-02-14T09:09:18;11.50;;;10.90;;
34737;SDS011;39910;47.154;27.614;2024-02-14T09:11:44;11.80;;;11.20;;
34737;SDS011;39910;47.154;27.614;2024-02-14T09:14:11;10.73;;;10.23;;
34737;SDS011;39910;47.154;27.614;2024-02-14T09:16:36;10.98;;;10.48;;
34737;SDS011;39910;47.154;27.614;2024-02-14T09:19:02;11.68;;;11.07;;
34737;SDS011;39910;47.154;27.614;2024-02-14T09:21:28;11.80;;;11.20;;
34737;SDS011;39910;47.154;27.614;2024-02-14T09:23:54;11.13;;;10.63;;
34737;SDS011;39910;47.154;27.614;2024-02-14T09:26:20;11.45;;;10.85;;
34737;SDS011;39910;47.154;27.614;2024-02-14T09:28:45;11.70;;;11.10;;
34737;SDS011;39910;47.154;27.614;2024-02-14T09:31:11;11.50;;;10.90;;
34737;SDS011;39910;47.154;27.614;2024-02-14T09:33:37;11.15;;;10.60;;
34737;SDS011;39910;47.154;27.614;2024-02-14T09:36:03;10.60;;;10.10;;
34737;SDS011;39910;47.154;27.614;2024-02-14T09:38:29;11.55;;;10.95;;
34737;SDS011;39910;47.154;27.614;2024-02-14T09:40:54;11.25;;;10.65;;
34737;SDS011;39910;47.154;27.614;2024-02-14T09:43:38;11.38;;;10.77;;
34737;SDS011;39910;47.154;27.614;2024-02-14T09:46:06;11.52;;;10.93;;
34737;SDS011;39910;47.154;27.614;2024-02-14T09:48:32;11.57;;;10.98;;
34737;SDS011;39910;47.154;27.614;2024-02-14T09:50:58;11.27;;;10.73;;
34737;SDS011;39910;47.154;27.614;2024-02-14T09:53:24;11.48;;;10.88;;
34737;SDS011;39910;47.154;27.614;2024-02-14T09:55:51;11.27;;;10.68;;
34737;SDS011;39910;47.154;27.614;2024-02-14T09:58:17;11.45;;;10.85;;
34737;SDS011;39910;47.154;27.614;2024-02-14T10:00:43;11.13;;;10.63;;
34737;SDS011;39910;47.154;27.614;2024-02-14T10:03:09;11.48;;;10.88;;
34737;SDS011;39910;47.154;27.614;2024-02-14T10:05:34;11.00;;;10.50;;
34737;SDS011;39910;47.154;27.614;2024-02-14T10:08:00;11.88;;;11.27;;
34737;SDS011;39910;47.154;27.614;2024-02-14T10:10:26;11.40;;;10.80;;
34737;SDS011;39910;47.154;27.614;2024-02-14T10:12:54;10.80;;;10.30;;
34737;SDS011;39910;47.154;27.614;2024-02-14T10:15:20;11.40;;;10.80;;
34737;SDS011;39910;47.154;27.614;2024-02-14T10:17:45;11.80;;;11.20;;
34737;SDS011;39910;47.154;27.614;2024-02-14T10:20:11;11.65;;;11.05;;
34737;SDS011;39910;47.154;27.614;2024-02-14T10:22:41;11.35;;;10.75;;
34737;SDS011;39910;47.154;27.614;2024-02-14T10:25:07;11.43;;;10.82;;
34737;SDS011;39910;47.154;27.614;2024-02-14T10:27:38;11.38;;;10.77;;
34737;SDS011;39910;47.154;27.614;2024-02-14T10:30:07;11.43;;;10.82;;
34737;SDS011;39910;47.154;27.614;2024-02-14T10:32:39;12.02;;;11.43;;
34737;SDS011;39910;47.154;27.614;2024-02-14T10:35:05;11.48;;;10.88;;
34737;SDS011;39910;47.154;27.614;2024-02-14T10:37:36;11.15;;;10.60;;
34737;SDS011;39910;47.154;27.614;2024-02-14T10:40:02;12.02;;;11.43;;
34737;SDS011;39910;47.154;27.614;2024-02-14T10:42:29;11.70;;;11.10;;
34737;SDS011;39910;47.154;27.614;2024-02-14T10:44:54;12.52;;;11.82;;
34737;SDS011;39910;47.154;27.614;2024-02-14T10:47:20;11.38;;;10.77;;
34737;SDS011;39910;47.154;27.614;2024-02-14T10:49:48;11.50;;;10.90;;
34737;SDS011;39910;47.154;27.614;2024-02-14T10:52:17;10.88;;;10.38;;
34737;SDS011;39910;47.154;27.614;2024-02-14T10:54:43;11.43;;;10.82;;
34737;SDS011;39910;47.154;27.614;2024-02-14T10:57:12;11.35;;;10.75;;
34737;SDS011;39910;47.154;27.614;2024-02-14T10:59:41;11.38;;;10.77;;
34737;SDS011;39910;47.154;27.614;2024-02-14T11:02:08;11.40;;;10.80;;
34737;SDS011;39910;47.154;27.614;2024-02-14T11:04:34;10.75;;;10.25;;
34737;SDS011;39910;47.154;27.614;2024-02-14T11:07:00;11.27;;;10.70;;
34737;SDS011;39910;47.154;27.614;2024-02-14T11:09:37;11.32;;;10.73;;
34737;SDS011;39910;47.154;27.614;2024-02-14T11:12:03;11.57;;;10.98;;
34737;SDS011;39910;47.154;27.614;2024-02-14T11:14:32;11.00;;;10.50;;
34737;SDS011;39910;47.154;27.614;2024-02-14T11:17:12;11.65;;;11.05;;
34737;SDS011;39910;47.154;27.614;2024-02-14T11:19:39;11.77;;;11.18;;
34737;SDS011;39910;47.154;27.614;2024-02-14T11:24:38;11.98;;;11.38;;
34737;SDS011;39910;47.154;27.614;2024-02-14T11:27:03;11.55;;;10.95;;
34737;SDS011;39910;47.154;27.614;2024-02-14T11:29:34;12.13;;;11.52;;
34737;SDS011;39910;47.154;27.614;2024-02-14T11:31:59;11.27;;;10.68;;
34737;SDS011;39910;47.154;27.614;2024-02-14T11:34:25;11.32;;;10.73;;
34737;SDS011;39910;47.154;27.614;2024-02-14T11:36:51;10.90;;;10.40;;
34737;SDS011;39910;47.154;27.614;2024-02-14T11:39:16;11.35;;;10.75;;
34737;SDS011;39910;47.154;27.614;2024-02-14T11:41:42;12.20;;;11.60;;
34737;SDS011;39910;47.154;27.614;2024-02-14T11:44:10;11.25;;;10.65;;
34737;SDS011;39910;47.154;27.614;2024-02-14T11:46:37;12.70;;;12.00;;
34737;SDS011;39910;47.154;27.614;2024-02-14T11:49:04;11.30;;;10.70;;
34737;SDS011;39910;47.154;27.614;2024-02-14T11:51:29;11.15;;;10.63;;
34737;SDS011;39910;47.154;27.614;2024-02-14T11:53:55;10.90;;;10.40;;
34737;SDS011;39910;47.154;27.614;2024-02-14T11:56:21;11.85;;;11.25;;
34737;SDS011;39910;47.154;27.614;2024-02-14T11:58:48;10.52;;;10.02;;
34737;SDS011;39910;47.154;27.614;2024-02-14T12:01:16;10.30;;;9.80;;
34737;SDS011;39910;47.154;27.614;2024-02-14T12:03:42;10.60;;;10.10;;
34737;SDS011;39910;47.154;27.614;2024-02-14T12:06:09;10.60;;;10.10;;
34737;SDS011;39910;47.154;27.614;2024-02-14T12:08:35;10.55;;;10.05;;
34737;SDS011;39910;47.154;27.614;2024-02-14T12:11:01;10.00;;;9.50;;
34737;SDS011;39910;47.154;27.614;2024-02-14T12:13:26;10.40;;;9.90;;
34737;SDS011;39910;47.154;27.614;2024-02-14T12:15:52;10.70;;;10.20;;
34737;SDS011;39910;47.154;27.614;2024-02-14T12:18:19;10.20;;;9.70;;
34737;SDS011;39910;47.154;27.614;2024-02-14T12:20:44;10.73;;;10.23;;
34737;SDS011;39910;47.154;27.614;2024-02-14T12:23:17;10.40;;;9.90;;
34737;SDS011;39910;47.154;27.614;2024-02-14T12:25:43;11.27;;;10.70;;
34737;SDS011;39910;47.154;27.614;2024-02-14T12:28:12;10.63;;;10.13;;
34737;SDS011;39910;47.154;27.614;2024-02-14T12:33:14;9.98;;;9.52;;
34737;SDS011;39910;47.154;27.614;2024-02-14T12:35:47;11.65;;;11.05;;
34737;SDS011;39910;47.154;27.614;2024-02-14T12:38:13;11.18;;;10.63;;
34737;SDS011;39910;47.154;27.614;2024-02-14T12:40:38;12.07;;;11.48;;
34737;SDS011;39910;47.154;27.614;2024-02-14T12:43:07;12.05;;;11.45;;
34737;SDS011;39910;47.154;27.614;2024-02-14T12:45:32;11.93;;;11.32;;
34737;SDS011;39910;47.154;27.614;2024-02-14T12:47:57;12.38;;;11.73;;
34737;SDS011;39910;47.154;27.614;2024-02-14T12:50:24;12.00;;;11.40;;
34737;SDS011;39910;47.154;27.614;2024-02-14T12:52:50;12.02;;;11.43;;
34737;SDS011;39910;47.154;27.614;2024-02-14T12:55:15;12.60;;;11.90;;
34737;SDS011;39910;47.154;27.614;2024-02-14T12:57:40;12.45;;;11.75;;
34737;SDS011;39910;47.154;27.614;2024-02-14T13:00:07;11.82;;;11.23;;
34737;SDS011;39910;47.154;27.614;2024-02-14T13:02:36;12.02;;;11.43;;
34737;SDS011;39910;47.154;27.614;2024-02-14T13:05:03;11.50;;;10.90;;
34737;SDS011;39910;47.154;27.614;2024-02-14T13:07:33;11.70;;;11.10;;
34737;SDS011;39910;47.154;27.614;2024-02-14T13:09:58;11.02;;;10.50;;
34737;SDS011;39910;47.154;27.614;2024-02-14T13:12:24;12.02;;;11.43;;
34737;SDS011;39910;47.154;27.614;2024-02-14T13:14:49;11.60;;;11.00;;
34737;SDS011;39910;47.154;27.614;2024-02-14T13:17:14;12.18;;;11.57;;
34737;SDS011;39910;47.154;27.614;2024-02-14T13:19:40;11.52;;;10.93;;
34737;SDS011;39910;47.154;27.614;2024-02-14T13:22:08;11.85;;;11.25;;
34737;SDS011;39910;47.154;27.614;2024-02-14T13:24:33;12.30;;;11.70;;
34737;SDS011;39910;47.154;27.614;2024-02-14T13:26:58;12.27;;;11.68;;
34737;SDS011;39910;47.154;27.614;2024-02-14T13:29:24;11.98;;;11.38;;
34737;SDS011;39910;47.154;27.614;2024-02-14T13:31:53;11.48;;;10.88;;
34737;SDS011;39910;47.154;27.614;2024-02-14T13:34:18;11.70;;;11.10;;
34737;SDS011;39910;47.154;27.614;2024-02-14T13:36:48;11.57;;;10.98;;
34737;SDS011;39910;47.154;27.614;2024-02-14T13:39:13;12.55;;;11.85;;
34737;SDS011;39910;47.154;27.614;2024-02-14T13:41:39;12.02;;;11.43;;
34737;SDS011;39910;47.154;27.614;2024-02-14T13:44:07;12.77;;;12.07;;
34737;SDS011;39910;47.154;27.614;2024-02-14T13:46:34;12.18;;;11.57;;
34737;SDS011;39910;47.154;27.614;2024-02-14T13:49:00;11.95;;;11.35;;
34737;SDS011;39910;47.154;27.614;2024-02-14T13:51:25;11.85;;;11.25;;
34737;SDS011;39910;47.154;27.614;2024-02-14T13:53:52;11.90;;;11.30;;
34737;SDS011;39910;47.154;27.614;2024-02-14T13:56:17;11.60;;;11.00;;
34737;SDS011;39910;47.154;27.614;2024-02-14T13:58:46;11.85;;;11.25;;
34737;SDS011;39910;47.154;27.614;2024-02-14T14:01:11;12.82;;;12.13;;
34737;SDS011;39910;47.154;27.614;2024-02-14T14:03:37;11.75;;;11.15;;
34737;SDS011;39910;47.154;27.614;2024-02-14T14:06:02;11.57;;;10.98;;
34737;SDS011;39910;47.154;27.614;2024-02-14T14:08:30;12.20;;;11.60;;
34737;SDS011;39910;47.154;27.614;2024-02-14T14:10:55;12.65;;;11.95;;
34737;SDS011;39910;47.154;27.614;2024-02-14T14:13:21;11.90;;;11.30;;
34737;SDS011;39910;47.154;27.614;2024-02-14T14:15:46;12.07;;;11.48;;